sensor_id;sensor_type;location;lat;lon;timestamp;temperature;humidity
52125;DHT22;38119;52.710;6.398;2024-03-29T00:00:33;8.70;99.90
52125;DHT22;38119;52.710;6.398;2024-03-29T00:02:59;8.40;99.90
52125;DHT22;38119;52.710;6.398;2024-03-29T00:05:25;8.40;99.90
52125;DHT22;38119;52.710;6.398;2024-03-29T00:07:51;8.30;99.90
52125;DHT22;38119;52.710;6.398;2024-03-29T00:10:16;8.30;99.90
52125;DHT22;38119;52.710;6.398;2024-03-29T00:12:42;8.40;99.90
52125;DHT22;38119;52.710;6.398;2024-03-29T00:15:08;8.30;99.90
52125;DHT22;38119;52.710;6.398;2024-03-29T00:17:33;8.30;99.90
52125;DHT22;38119;52.710;6.398;2024-03-29T00:19:59;8.30;99.90
52125;DHT22;38119;52.710;6.398;2024-03-29T00:22:25;9.30;99.90
52125;DHT22;38119;52.710;6.398;2024-03-29T00:24:50;8.20;99.90
52125;DHT22;38119;52.710;6.398;2024-03-29T00:27:16;8.30;99.90
52125;DHT22;38119;52.710;6.398;2024-03-29T00:29:41;8.20;99.90
52125;DHT22;38119;52.710;6.398;2024-03-29T00:32:09;8.30;99.90
52125;DHT22;38119;52.710;6.398;2024-03-29T00:34:34;8.30;99.90
52125;DHT22;38119;52.710;6.398;2024-03-29T00:37:00;8.30;99.90
52125;DHT22;38119;52.710;6.398;2024-03-29T00:39:25;8.30;99.90
52125;DHT22;38119;52.710;6.398;2024-03-29T00:41:51;8.40;99.90
52125;DHT22;38119;52.710;6.398;2024-03-29T00:44:17;8.20;99.90
52125;DHT22;38119;52.710;6.398;2024-03-29T00:46:42;8.30;99.90
52125;DHT22;38119;52.710;6.398;2024-03-29T00:49:08;8.20;99.90
52125;DHT22;38119;52.710;6.398;2024-03-29T00:51:33;8.20;99.90
52125;DHT22;38119;52.710;6.398;2024-03-29T00:53:59;8.30;99.90
52125;DHT22;38119;52.710;6.398;2024-03-29T00:56:24;8.20;99.90
52125;DHT22;38119;52.710;6.398;2024-03-29T00:58:50;8.30;99.90
52125;DHT22;38119;52.710;6.398;2024-03-29T01:01:16;8.20;99.90
52125;DHT22;38119;52.710;6.398;2024-03-29T01:03:41;8.20;99.90
52125;DHT22;38119;52.710;6.398;2024-03-29T01:06:07;8.20;99.90
52125;DHT22;38119;52.710;6.398;2024-03-29T01:08:33;8.20;99.90
52125;DHT22;38119;52.710;6.398;2024-03-29T01:10:58;8.20;99.90
52125;DHT22;38119;52.710;6.398;2024-03-29T01:13:24;8.30;99.90
52125;DHT22;38119;52.710;6.398;2024-03-29T01:15:49;8.30;99.90
52125;DHT22;38119;52.710;6.398;2024-03-29T01:18:15;8.30;99.90
52125;DHT22;38119;52.710;6.398;2024-03-29T01:20:41;8.80;99.90
52125;DHT22;38119;52.710;6.398;2024-03-29T01:23:07;8.30;99.90
52125;DHT22;38119;52.710;6.398;2024-03-29T01:25:33;8.30;99.90
52125;DHT22;38119;52.710;6.398;2024-03-29T01:27:59;8.30;99.90
52125;DHT22;38119;52.710;6.398;2024-03-29T01:30:24;8.30;99.90
52125;DHT22;38119;52.710;6.398;2024-03-29T01:32:52;8.40;99.90
52125;DHT22;38119;52.710;6.398;2024-03-29T01:35:18;8.30;99.90
52125;DHT22;38119;52.710;6.398;2024-03-29T01:37:43;8.40;99.90
52125;DHT22;38119;52.710;6.398;2024-03-29T01:40:09;8.40;99.90
52125;DHT22;38119;52.710;6.398;2024-03-29T01:42:36;8.40;99.90
52125;DHT22;38119;52.710;6.398;2024-03-29T01:45:01;8.40;99.90
52125;DHT22;38119;52.710;6.398;2024-03-29T01:47:27;8.40;99.90
52125;DHT22;38119;52.710;6.398;2024-03-29T01:49:53;8.40;99.90
52125;DHT22;38119;52.710;6.398;2024-03-29T01:52:19;8.40;99.90
52125;DHT22;38119;52.710;6.398;2024-03-29T01:54:46;8.40;99.90
52125;DHT22;38119;52.710;6.398;2024-03-29T01:57:12;8.40;99.90
52125;DHT22;38119;52.710;6.398;2024-03-29T01:59:40;8.40;99.90
52125;DHT22;38119;52.710;6.398;2024-03-29T02:02:07;8.40;99.90
52125;DHT22;38119;52.710;6.398;2024-03-29T02:04:33;8.30;99.90
52125;DHT22;38119;52.710;6.398;2024-03-29T02:07:00;8.40;99.90
52125;DHT22;38119;52.710;6.398;2024-03-29T02:09:25;8.40;99.90
52125;DHT22;38119;52.710;6.398;2024-03-29T02:11:51;8.30;99.90
52125;DHT22;38119;52.710;6.398;2024-03-29T02:14:17;8.30;99.90
52125;DHT22;38119;52.710;6.398;2024-03-29T02:16:42;8.30;99.90
52125;DHT22;38119;52.710;6.398;2024-03-29T02:19:08;8.30;99.90
52125;DHT22;38119;52.710;6.398;2024-03-29T02:21:37;8.50;99.90
52125;DHT22;38119;52.710;6.398;2024-03-29T02:24:07;8.40;99.90
52125;DHT22;38119;52.710;6.398;2024-03-29T02:26:34;8.30;99.90
52125;DHT22;38119;52.710;6.398;2024-03-29T02:29:02;8.30;99.90
52125;DHT22;38119;52.710;6.398;2024-03-29T02:31:28;8.30;99.90
52125;DHT22;38119;52.710;6.398;2024-03-29T02:33:53;8.40;99.90
52125;DHT22;38119;52.710;6.398;2024-03-29T02:36:19;8.30;99.90
52125;DHT22;38119;52.710;6.398;2024-03-29T02:38:45;8.30;99.90
52125;DHT22;38119;52.710;6.398;2024-03-29T02:41:10;8.40;99.90
52125;DHT22;38119;52.710;6.398;2024-03-29T02:43:36;8.40;99.90
52125;DHT22;38119;52.710;6.398;2024-03-29T02:46:02;8.40;99.90
52125;DHT22;38119;52.710;6.398;2024-03-29T02:48:27;8.30;99.90
52125;DHT22;38119;52.710;6.398;2024-03-29T02:50:53;8.30;99.90
52125;DHT22;38119;52.710;6.398;2024-03-29T02:53:18;8.30;99.90
52125;DHT22;38119;52.710;6.398;2024-03-29T02:55:44;8.30;99.90
52125;DHT22;38119;52.710;6.398;2024-03-29T02:58:10;8.30;99.90
52125;DHT22;38119;52.710;6.398;2024-03-29T03:00:35;8.30;99.90
52125;DHT22;38119;52.710;6.398;2024-03-29T03:03:01;8.20;99.90
52125;DHT22;38119;52.710;6.398;2024-03-29T03:05:26;8.20;99.90
52125;DHT22;38119;52.710;6.398;2024-03-29T03:07:52;8.20;99.90
52125;DHT22;38119;52.710;6.398;2024-03-29T03:10:45;8.20;99.90
52125;DHT22;38119;52.710;6.398;2024-03-29T03:13:29;8.20;99.90
52125;DHT22;38119;52.710;6.398;2024-03-29T03:15:55;8.20;99.90
52125;DHT22;38119;52.710;6.398;2024-03-29T03:18:21;8.20;99.90
52125;DHT22;38119;52.710;6.398;2024-03-29T03:20:53;8.20;99.90
52125;DHT22;38119;52.710;6.398;2024-03-29T03:23:19;8.20;99.90
52125;DHT22;38119;52.710;6.398;2024-03-29T03:25:58;8.10;99.90
52125;DHT22;38119;52.710;6.398;2024-03-29T03:28:24;8.20;99.90
52125;DHT22;38119;52.710;6.398;2024-03-29T03:30:51;8.20;99.90
52125;DHT22;38119;52.710;6.398;2024-03-29T03:33:17;8.20;99.90
52125;DHT22;38119;52.710;6.398;2024-03-29T03:35:43;8.30;99.90
52125;DHT22;38119;52.710;6.398;2024-03-29T03:38:09;8.20;99.90
52125;DHT22;38119;52.710;6.398;2024-03-29T03:40:36;8.20;99.90
52125;DHT22;38119;52.710;6.398;2024-03-29T03:43:02;8.20;99.90
52125;DHT22;38119;52.710;6.398;2024-03-29T03:45:28;8.20;99.90
52125;DHT22;38119;52.710;6.398;2024-03-29T03:47:53;8.20;99.90
52125;DHT22;38119;52.710;6.398;2024-03-29T03:50:19;8.20;99.90
52125;DHT22;38119;52.710;6.398;2024-03-29T03:52:45;8.30;99.90
52125;DHT22;38119;52.710;6.398;2024-03-29T03:55:10;8.20;99.90
52125;DHT22;38119;52.710;6.398;2024-03-29T03:57:36;8.20;99.90
52125;DHT22;38119;52.710;6.398;2024-03-29T04:00:03;8.20;99.90
52125;DHT22;38119;52.710;6.398;2024-03-29T04:02:29;8.20;99.90
52125;DHT22;38119;52.710;6.398;2024-03-29T04:04:55;8.20;99.90
52125;DHT22;38119;52.710;6.398;2024-03-29T04:07:20;8.20;99.90
52125;DHT22;38119;52.710;6.398;2024-03-29T04:09:46;8.30;99.90
52125;DHT22;38119;52.710;6.398;2024-03-29T04:12:15;8.30;99.90
52125;DHT22;38119;52.710;6.398;2024-03-29T04:14:41;8.30;99.90
52125;DHT22;38119;52.710;6.398;2024-03-29T04:17:06;8.40;99.90
52125;DHT22;38119;52.710;6.398;2024-03-29T04:19:32;8.40;99.90
52125;DHT22;38119;52.710;6.398;2024-03-29T04:21:57;8.40;99.90
52125;DHT22;38119;52.710;6.398;2024-03-29T04:24:23;8.40;99.90
52125;DHT22;38119;52.710;6.398;2024-03-29T04:26:49;8.40;99.90
52125;DHT22;38119;52.710;6.398;2024-03-29T04:29:15;8.40;99.90
52125;DHT22;38119;52.710;6.398;2024-03-29T04:31:40;8.50;99.90
52125;DHT22;38119;52.710;6.398;2024-03-29T04:34:06;8.50;99.90
52125;DHT22;38119;52.710;6.398;2024-03-29T04:36:32;8.50;99.90
52125;DHT22;38119;52.710;6.398;2024-03-29T04:38:57;8.50;99.90
52125;DHT22;38119;52.710;6.398;2024-03-29T04:41:23;8.50;99.90
52125;DHT22;38119;52.710;6.398;2024-03-29T04:43:50;8.50;99.90
52125;DHT22;38119;52.710;6.398;2024-03-29T04:46:16;8.50;99.90
52125;DHT22;38119;52.710;6.398;2024-03-29T04:48:42;8.60;99.90
52125;DHT22;38119;52.710;6.398;2024-03-29T04:51:11;8.60;99.90
52125;DHT22;38119;52.710;6.398;2024-03-29T04:53:40;8.70;99.90
52125;DHT22;38119;52.710;6.398;2024-03-29T04:56:06;8.60;99.90
52125;DHT22;38119;52.710;6.398;2024-03-29T04:58:32;8.60;99.90
52125;DHT22;38119;52.710;6.398;2024-03-29T05:00:58;8.60;99.90
52125;DHT22;38119;52.710;6.398;2024-03-29T05:03:24;8.60;99.90
52125;DHT22;38119;52.710;6.398;2024-03-29T05:05:50;8.60;99.90
52125;DHT22;38119;52.710;6.398;2024-03-29T05:08:16;8.60;99.90
52125;DHT22;38119;52.710;6.398;2024-03-29T05:10:44;8.60;99.90
52125;DHT22;38119;52.710;6.398;2024-03-29T05:13:10;8.60;99.90
52125;DHT22;38119;52.710;6.398;2024-03-29T05:15:35;8.60;99.90
52125;DHT22;38119;52.710;6.398;2024-03-29T05:18:01;8.60;99.90
52125;DHT22;38119;52.710;6.398;2024-03-29T05:20:26;8.60;99.90
52125;DHT22;38119;52.710;6.398;2024-03-29T05:22:52;8.60;99.90
52125;DHT22;38119;52.710;6.398;2024-03-29T05:25:17;8.70;99.90
52125;DHT22;38119;52.710;6.398;2024-03-29T05:27:43;8.70;99.90
52125;DHT22;38119;52.710;6.398;2024-03-29T05:30:09;8.60;99.90
52125;DHT22;38119;52.710;6.398;2024-03-29T05:32:39;8.70;99.90
52125;DHT22;38119;52.710;6.398;2024-03-29T05:35:04;8.70;99.90
52125;DHT22;38119;52.710;6.398;2024-03-29T05:37:30;8.70;99.90
52125;DHT22;38119;52.710;6.398;2024-03-29T05:39:56;8.70;99.90
52125;DHT22;38119;52.710;6.398;2024-03-29T05:42:29;9.00;99.90
52125;DHT22;38119;52.710;6.398;2024-03-29T05:44:55;8.70;99.90
52125;DHT22;38119;52.710;6.398;2024-03-29T05:47:21;8.70;99.90
52125;DHT22;38119;52.710;6.398;2024-03-29T05:49:47;8.70;99.90
52125;DHT22;38119;52.710;6.398;2024-03-29T05:52:13;8.80;99.90
52125;DHT22;38119;52.710;6.398;2024-03-29T05:54:43;8.70;99.90
52125;DHT22;38119;52.710;6.398;2024-03-29T05:57:09;8.70;99.90
52125;DHT22;38119;52.710;6.398;2024-03-29T05:59:35;8.80;99.90
52125;DHT22;38119;52.710;6.398;2024-03-29T06:02:01;8.80;99.90
52125;DHT22;38119;52.710;6.398;2024-03-29T06:04:27;8.80;99.90
52125;DHT22;38119;52.710;6.398;2024-03-29T06:07:04;8.80;99.90
52125;DHT22;38119;52.710;6.398;2024-03-29T06:09:30;8.80;99.90
52125;DHT22;38119;52.710;6.398;2024-03-29T06:11:58;8.80;99.90
52125;DHT22;38119;52.710;6.398;2024-03-29T06:14:24;8.80;99.90
52125;DHT22;38119;52.710;6.398;2024-03-29T06:17:08;8.80;99.90
52125;DHT22;38119;52.710;6.398;2024-03-29T06:22:22;8.90;99.90
52125;DHT22;38119;52.710;6.398;2024-03-29T06:24:49;8.90;99.90
52125;DHT22;38119;52.710;6.398;2024-03-29T06:27:17;8.90;99.90
52125;DHT22;38119;52.710;6.398;2024-03-29T06:29:44;8.90;99.90
52125;DHT22;38119;52.710;6.398;2024-03-29T06:32:10;8.90;99.90
52125;DHT22;38119;52.710;6.398;2024-03-29T06:34:35;8.90;99.90
52125;DHT22;38119;52.710;6.398;2024-03-29T06:37:02;8.90;99.90
52125;DHT22;38119;52.710;6.398;2024-03-29T06:39:27;8.80;99.90
52125;DHT22;38119;52.710;6.398;2024-03-29T06:41:53;8.80;99.90
52125;DHT22;38119;52.710;6.398;2024-03-29T06:44:19;8.90;99.90
52125;DHT22;38119;52.710;6.398;2024-03-29T06:46:45;8.80;99.90
52125;DHT22;38119;52.710;6.398;2024-03-29T06:49:11;8.70;99.90
52125;DHT22;38119;52.710;6.398;2024-03-29T06:51:36;8.70;99.90
52125;DHT22;38119;52.710;6.398;2024-03-29T06:54:02;8.70;99.90
52125;DHT22;38119;52.710;6.398;2024-03-29T06:56:28;8.70;99.90
52125;DHT22;38119;52.710;6.398;2024-03-29T06:58:55;8.70;99.90
52125;DHT22;38119;52.710;6.398;2024-03-29T07:01:20;8.60;99.90
52125;DHT22;38119;52.710;6.398;2024-03-29T07:03:47;8.50;99.90
52125;DHT22;38119;52.710;6.398;2024-03-29T07:06:12;8.60;99.90
52125;DHT22;38119;52.710;6.398;2024-03-29T07:08:39;8.60;99.90
52125;DHT22;38119;52.710;6.398;2024-03-29T07:11:04;8.50;99.90
52125;DHT22;38119;52.710;6.398;2024-03-29T07:13:30;8.60;99.90
52125;DHT22;38119;52.710;6.398;2024-03-29T07:15:58;8.50;99.90
52125;DHT22;38119;52.710;6.398;2024-03-29T07:18:23;8.50;99.90
52125;DHT22;38119;52.710;6.398;2024-03-29T07:20:49;8.40;99.90
52125;DHT22;38119;52.710;6.398;2024-03-29T07:23:16;8.50;99.90
52125;DHT22;38119;52.710;6.398;2024-03-29T07:25:44;8.40;99.90
52125;DHT22;38119;52.710;6.398;2024-03-29T07:28:10;8.40;99.90
52125;DHT22;38119;52.710;6.398;2024-03-29T07:30:36;8.40;99.90
52125;DHT22;38119;52.710;6.398;2024-03-29T07:33:04;8.40;99.90
52125;DHT22;38119;52.710;6.398;2024-03-29T07:35:29;8.40;99.90
52125;DHT22;38119;52.710;6.398;2024-03-29T07:37:55;8.40;99.90
52125;DHT22;38119;52.710;6.398;2024-03-29T07:40:22;8.70;99.90
52125;DHT22;38119;52.710;6.398;2024-03-29T07:42:48;8.40;99.90
52125;DHT22;38119;52.710;6.398;2024-03-29T07:45:13;8.40;99.90
52125;DHT22;38119;52.710;6.398;2024-03-29T07:47:39;8.40;99.90
52125;DHT22;38119;52.710;6.398;2024-03-29T07:50:05;8.50;99.90
52125;DHT22;38119;52.710;6.398;2024-03-29T07:52:33;8.50;99.90
52125;DHT22;38119;52.710;6.398;2024-03-29T07:54:58;8.50;99.90
52125;DHT22;38119;52.710;6.398;2024-03-29T07:57:25;8.70;99.90
52125;DHT22;38119;52.710;6.398;2024-03-29T07:59:51;8.50;99.90
52125;DHT22;38119;52.710;6.398;2024-03-29T08:02:16;8.50;99.90
52125;DHT22;38119;52.710;6.398;2024-03-29T08:04:42;8.50;99.90
52125;DHT22;38119;52.710;6.398;2024-03-29T08:07:10;8.50;99.90
52125;DHT22;38119;52.710;6.398;2024-03-29T08:09:37;8.60;99.90
52125;DHT22;38119;52.710;6.398;2024-03-29T08:12:05;8.50;99.90
52125;DHT22;38119;52.710;6.398;2024-03-29T08:14:33;8.50;99.90
52125;DHT22;38119;52.710;6.398;2024-03-29T08:17:02;8.50;99.90
52125;DHT22;38119;52.710;6.398;2024-03-29T08:19:30;8.50;99.90
52125;DHT22;38119;52.710;6.398;2024-03-29T08:21:56;8.50;99.90
52125;DHT22;38119;52.710;6.398;2024-03-29T08:24:21;8.60;99.90
52125;DHT22;38119;52.710;6.398;2024-03-29T08:26:47;8.70;99.90
52125;DHT22;38119;52.710;6.398;2024-03-29T08:29:12;8.70;99.90
52125;DHT22;38119;52.710;6.398;2024-03-29T08:31:38;8.80;99.90
52125;DHT22;38119;52.710;6.398;2024-03-29T08:34:04;8.80;99.90
52125;DHT22;38119;52.710;6.398;2024-03-29T08:36:29;9.20;99.90
52125;DHT22;38119;52.710;6.398;2024-03-29T08:38:55;9.00;99.90
52125;DHT22;38119;52.710;6.398;2024-03-29T08:41:21;9.10;99.90
52125;DHT22;38119;52.710;6.398;2024-03-29T08:43:47;9.10;99.90
52125;DHT22;38119;52.710;6.398;2024-03-29T08:46:13;9.10;99.90
52125;DHT22;38119;52.710;6.398;2024-03-29T08:48:38;9.20;99.90
52125;DHT22;38119;52.710;6.398;2024-03-29T08:51:07;9.20;99.90
52125;DHT22;38119;52.710;6.398;2024-03-29T08:53:33;9.20;99.90
52125;DHT22;38119;52.710;6.398;2024-03-29T08:55:59;9.20;99.90
52125;DHT22;38119;52.710;6.398;2024-03-29T08:58:24;9.30;99.90
52125;DHT22;38119;52.710;6.398;2024-03-29T09:00:55;9.30;99.90
52125;DHT22;38119;52.710;6.398;2024-03-29T09:03:24;9.30;99.90
52125;DHT22;38119;52.710;6.398;2024-03-29T09:05:51;9.40;99.90
52125;DHT22;38119;52.710;6.398;2024-03-29T09:08:20;9.40;99.90
52125;DHT22;38119;52.710;6.398;2024-03-29T09:10:46;9.30;99.90
52125;DHT22;38119;52.710;6.398;2024-03-29T09:13:12;9.40;99.90
52125;DHT22;38119;52.710;6.398;2024-03-29T09:15:38;9.50;99.90
52125;DHT22;38119;52.710;6.398;2024-03-29T09:18:04;9.50;99.90
52125;DHT22;38119;52.710;6.398;2024-03-29T09:20:42;9.60;99.90
52125;DHT22;38119;52.710;6.398;2024-03-29T09:23:08;9.70;99.90
52125;DHT22;38119;52.710;6.398;2024-03-29T09:25:33;9.60;99.90
52125;DHT22;38119;52.710;6.398;2024-03-29T09:27:59;9.90;99.90
52125;DHT22;38119;52.710;6.398;2024-03-29T09:30:26;9.80;99.90
52125;DHT22;38119;52.710;6.398;2024-03-29T09:32:52;9.90;99.90
52125;DHT22;38119;52.710;6.398;2024-03-29T09:35:18;10.00;99.90
52125;DHT22;38119;52.710;6.398;2024-03-29T09:37:45;10.10;99.90
52125;DHT22;38119;52.710;6.398;2024-03-29T09:40:10;10.20;99.90
52125;DHT22;38119;52.710;6.398;2024-03-29T09:42:38;10.30;99.90
52125;DHT22;38119;52.710;6.398;2024-03-29T09:45:05;10.40;99.90
52125;DHT22;38119;52.710;6.398;2024-03-29T09:47:32;10.40;99.90
52125;DHT22;38119;52.710;6.398;2024-03-29T09:50:04;10.40;99.90
52125;DHT22;38119;52.710;6.398;2024-03-29T09:52:32;10.40;99.90
52125;DHT22;38119;52.710;6.398;2024-03-29T09:55:00;10.50;99.90
52125;DHT22;38119;52.710;6.398;2024-03-29T09:57:26;10.60;99.90
52125;DHT22;38119;52.710;6.398;2024-03-29T09:59:56;10.70;99.90
52125;DHT22;38119;52.710;6.398;2024-03-29T10:02:27;11.00;99.90
52125;DHT22;38119;52.710;6.398;2024-03-29T10:04:55;11.20;99.90
52125;DHT22;38119;52.710;6.398;2024-03-29T10:07:23;11.40;99.90
52125;DHT22;38119;52.710;6.398;2024-03-29T10:09:48;11.40;99.90
52125;DHT22;38119;52.710;6.398;2024-03-29T10:12:16;11.60;99.90
52125;DHT22;38119;52.710;6.398;2024-03-29T10:14:51;11.70;99.90
52125;DHT22;38119;52.710;6.398;2024-03-29T10:17:44;11.70;99.90
52125;DHT22;38119;52.710;6.398;2024-03-29T10:20:10;11.90;99.90
52125;DHT22;38119;52.710;6.398;2024-03-29T10:22:40;11.70;99.90
52125;DHT22;38119;52.710;6.398;2024-03-29T10:25:06;11.70;99.90
52125;DHT22;38119;52.710;6.398;2024-03-29T10:27:32;11.60;99.90
52125;DHT22;38119;52.710;6.398;2024-03-29T10:29:59;11.70;99.90
52125;DHT22;38119;52.710;6.398;2024-03-29T10:32:24;11.60;99.90
52125;DHT22;38119;52.710;6.398;2024-03-29T10:34:51;11.60;99.90
52125;DHT22;38119;52.710;6.398;2024-03-29T10:37:17;11.50;99.90
52125;DHT22;38119;52.710;6.398;2024-03-29T10:39:50;11.60;99.90
52125;DHT22;38119;52.710;6.398;2024-03-29T10:42:15;11.60;99.90
52125;DHT22;38119;52.710;6.398;2024-03-29T10:44:42;11.70;99.90
52125;DHT22;38119;52.710;6.398;2024-03-29T10:47:09;11.80;99.90
52125;DHT22;38119;52.710;6.398;2024-03-29T10:49:41;11.90;99.90
52125;DHT22;38119;52.710;6.398;2024-03-29T10:52:07;11.90;99.90
52125;DHT22;38119;52.710;6.398;2024-03-29T10:54:34;11.90;99.90
52125;DHT22;38119;52.710;6.398;2024-03-29T10:57:07;12.00;99.90
52125;DHT22;38119;52.710;6.398;2024-03-29T10:59:47;12.10;99.90
52125;DHT22;38119;52.710;6.398;2024-03-29T11:02:33;12.10;99.90
52125;DHT22;38119;52.710;6.398;2024-03-29T11:05:02;12.10;99.90
52125;DHT22;38119;52.710;6.398;2024-03-29T11:07:34;12.10;99.90
52125;DHT22;38119;52.710;6.398;2024-03-29T11:10:00;12.10;99.90
52125;DHT22;38119;52.710;6.398;2024-03-29T11:12:29;12.30;99.90
52125;DHT22;38119;52.710;6.398;2024-03-29T11:15:02;12.30;99.90
52125;DHT22;38119;52.710;6.398;2024-03-29T11:17:30;12.30;99.90
52125;DHT22;38119;52.710;6.398;2024-03-29T11:19:59;12.30;99.90
52125;DHT22;38119;52.710;6.398;2024-03-29T11:22:26;12.30;99.90
52125;DHT22;38119;52.710;6.398;2024-03-29T11:24:53;12.40;99.90
52125;DHT22;38119;52.710;6.398;2024-03-29T11:27:22;12.40;99.90
52125;DHT22;38119;52.710;6.398;2024-03-29T11:29:48;12.40;99.90
52125;DHT22;38119;52.710;6.398;2024-03-29T11:32:15;12.30;99.90
52125;DHT22;38119;52.710;6.398;2024-03-29T11:34:44;12.50;99.90
52125;DHT22;38119;52.710;6.398;2024-03-29T11:37:11;12.30;99.90
52125;DHT22;38119;52.710;6.398;2024-03-29T11:39:38;12.30;99.90
52125;DHT22;38119;52.710;6.398;2024-03-29T11:42:04;12.30;99.90
52125;DHT22;38119;52.710;6.398;2024-03-29T11:44:29;12.40;99.90
52125;DHT22;38119;52.710;6.398;2024-03-29T11:46:58;12.60;99.90
52125;DHT22;38119;52.710;6.398;2024-03-29T11:49:24;12.70;99.90
52125;DHT22;38119;52.710;6.398;2024-03-29T11:51:49;12.90;99.90
52125;DHT22;38119;52.710;6.398;2024-03-29T11:54:15;13.00;99.90
52125;DHT22;38119;52.710;6.398;2024-03-29T11:56:42;13.10;99.90
52125;DHT22;38119;52.710;6.398;2024-03-29T11:59:08;13.20;99.90
52125;DHT22;38119;52.710;6.398;2024-03-29T12:01:35;13.10;99.90
52125;DHT22;38119;52.710;6.398;2024-03-29T12:04:04;13.10;99.90
52125;DHT22;38119;52.710;6.398;2024-03-29T12:06:30;13.20;99.90
52125;DHT22;38119;52.710;6.398;2024-03-29T12:08:55;13.30;99.90
52125;DHT22;38119;52.710;6.398;2024-03-29T12:11:22;13.20;99.90
52125;DHT22;38119;52.710;6.398;2024-03-29T12:13:48;13.30;99.90
52125;DHT22;38119;52.710;6.398;2024-03-29T12:16:15;13.20;99.90
52125;DHT22;38119;52.710;6.398;2024-03-29T12:18:40;13.20;99.90
52125;DHT22;38119;52.710;6.398;2024-03-29T12:21:06;13.30;99.90
52125;DHT22;38119;52.710;6.398;2024-03-29T12:23:32;13.30;99.90
52125;DHT22;38119;52.710;6.398;2024-03-29T12:25:58;13.40;99.90
52125;DHT22;38119;52.710;6.398;2024-03-29T12:28:25;13.50;99.90
52125;DHT22;38119;52.710;6.398;2024-03-29T12:30:51;13.50;99.90
52125;DHT22;38119;52.710;6.398;2024-03-29T12:33:19;13.50;99.90
52125;DHT22;38119;52.710;6.398;2024-03-29T12:35:50;13.60;99.90
52125;DHT22;38119;52.710;6.398;2024-03-29T12:38:18;13.50;99.90
52125;DHT22;38119;52.710;6.398;2024-03-29T12:40:48;13.40;99.90
52125;DHT22;38119;52.710;6.398;2024-03-29T12:43:22;13.30;99.90
52125;DHT22;38119;52.710;6.398;2024-03-29T12:45:49;13.10;99.90
52125;DHT22;38119;52.710;6.398;2024-03-29T12:48:22;12.90;99.90
52125;DHT22;38119;52.710;6.398;2024-03-29T12:50:49;12.70;99.90
52125;DHT22;38119;52.710;6.398;2024-03-29T12:53:16;12.60;99.90
52125;DHT22;38119;52.710;6.398;2024-03-29T12:55:46;12.50;99.90
52125;DHT22;38119;52.710;6.398;2024-03-29T12:58:16;12.40;99.90
52125;DHT22;38119;52.710;6.398;2024-03-29T13:00:44;12.40;99.90
52125;DHT22;38119;52.710;6.398;2024-03-29T13:03:10;12.40;99.90
52125;DHT22;38119;52.710;6.398;2024-03-29T13:05:38;12.40;99.90
52125;DHT22;38119;52.710;6.398;2024-03-29T13:08:16;12.50;99.90
52125;DHT22;38119;52.710;6.398;2024-03-29T13:10:42;12.60;99.90
52125;DHT22;38119;52.710;6.398;2024-03-29T13:13:09;12.60;99.90
52125;DHT22;38119;52.710;6.398;2024-03-29T13:15:36;12.70;99.90
52125;DHT22;38119;52.710;6.398;2024-03-29T13:18:03;12.90;99.90
52125;DHT22;38119;52.710;6.398;2024-03-29T13:20:29;12.90;99.90
52125;DHT22;38119;52.710;6.398;2024-03-29T13:22:55;13.00;99.90
52125;DHT22;38119;52.710;6.398;2024-03-29T13:25:22;13.10;99.90
52125;DHT22;38119;52.710;6.398;2024-03-29T13:27:53;13.60;99.90
52125;DHT22;38119;52.710;6.398;2024-03-29T13:30:21;13.30;99.90
52125;DHT22;38119;52.710;6.398;2024-03-29T13:32:47;13.30;99.90
52125;DHT22;38119;52.710;6.398;2024-03-29T13:35:13;13.40;99.90
52125;DHT22;38119;52.710;6.398;2024-03-29T13:37:39;13.40;99.90
52125;DHT22;38119;52.710;6.398;2024-03-29T13:40:09;13.40;99.90
52125;DHT22;38119;52.710;6.398;2024-03-29T13:42:37;13.40;99.90
52125;DHT22;38119;52.710;6.398;2024-03-29T13:45:04;13.50;99.90
52125;DHT22;38119;52.710;6.398;2024-03-29T13:47:32;13.50;99.90
52125;DHT22;38119;52.710;6.398;2024-03-29T13:49:58;13.50;99.90
52125;DHT22;38119;52.710;6.398;2024-03-29T13:52:24;13.50;99.90
52125;DHT22;38119;52.710;6.398;2024-03-29T13:54:50;13.50;99.90
52125;DHT22;38119;52.710;6.398;2024-03-29T13:57:19;13.60;99.90
52125;DHT22;38119;52.710;6.398;2024-03-29T13:59:45;13.70;99.90
52125;DHT22;38119;52.710;6.398;2024-03-29T14:02:12;13.70;99.90
52125;DHT22;38119;52.710;6.398;2024-03-29T14:04:39;13.80;99.90
52125;DHT22;38119;52.710;6.398;2024-03-29T14:07:05;13.90;99.90
52125;DHT22;38119;52.710;6.398;2024-03-29T14:09:34;13.90;99.90
52125;DHT22;38119;52.710;6.398;2024-03-29T14:12:00;13.90;99.90
52125;DHT22;38119;52.710;6.398;2024-03-29T14:14:26;14.10;99.90
52125;DHT22;38119;52.710;6.398;2024-03-29T14:16:52;14.20;99.90
52125;DHT22;38119;52.710;6.398;2024-03-29T14:19:17;14.30;99.90
52125;DHT22;38119;52.710;6.398;2024-03-29T14:21:43;14.30;99.90
52125;DHT22;38119;52.710;6.398;2024-03-29T14:24:08;14.30;99.90
52125;DHT22;38119;52.710;6.398;2024-03-29T14:26:34;14.30;99.90
52125;DHT22;38119;52.710;6.398;2024-03-29T14:28:59;14.30;99.90
52125;DHT22;38119;52.710;6.398;2024-03-29T14:31:25;14.30;99.90
52125;DHT22;38119;52.710;6.398;2024-03-29T14:33:51;14.30;99.90
52125;DHT22;38119;52.710;6.398;2024-03-29T14:36:16;14.30;99.90
52125;DHT22;38119;52.710;6.398;2024-03-29T14:38:44;14.20;99.90
52125;DHT22;38119;52.710;6.398;2024-03-29T14:41:09;14.20;99.90
52125;DHT22;38119;52.710;6.398;2024-03-29T14:43:36;14.20;99.90
52125;DHT22;38119;52.710;6.398;2024-03-29T14:46:02;14.10;99.90
52125;DHT22;38119;52.710;6.398;2024-03-29T14:48:27;14.10;99.90
52125;DHT22;38119;52.710;6.398;2024-03-29T14:50:53;14.00;99.90
52125;DHT22;38119;52.710;6.398;2024-03-29T14:53:21;14.00;99.90
52125;DHT22;38119;52.710;6.398;2024-03-29T14:55:47;13.90;99.90
52125;DHT22;38119;52.710;6.398;2024-03-29T14:58:13;14.00;99.90
52125;DHT22;38119;52.710;6.398;2024-03-29T15:00:39;14.00;99.90
52125;DHT22;38119;52.710;6.398;2024-03-29T15:03:04;14.00;99.90
52125;DHT22;38119;52.710;6.398;2024-03-29T15:05:30;14.00;99.90
52125;DHT22;38119;52.710;6.398;2024-03-29T15:07:55;13.90;99.90
52125;DHT22;38119;52.710;6.398;2024-03-29T15:10:22;13.80;99.90
52125;DHT22;38119;52.710;6.398;2024-03-29T15:12:48;13.80;99.90
52125;DHT22;38119;52.710;6.398;2024-03-29T15:15:14;13.80;99.90
52125;DHT22;38119;52.710;6.398;2024-03-29T15:17:40;13.80;99.90
52125;DHT22;38119;52.710;6.398;2024-03-29T15:20:07;13.80;99.90
52125;DHT22;38119;52.710;6.398;2024-03-29T15:22:35;13.80;99.90
52125;DHT22;38119;52.710;6.398;2024-03-29T15:25:01;13.80;99.90
52125;DHT22;38119;52.710;6.398;2024-03-29T15:27:27;13.80;99.90
52125;DHT22;38119;52.710;6.398;2024-03-29T15:30:16;13.80;99.90
52125;DHT22;38119;52.710;6.398;2024-03-29T15:32:41;13.80;99.90
52125;DHT22;38119;52.710;6.398;2024-03-29T15:35:08;13.80;99.90
52125;DHT22;38119;52.710;6.398;2024-03-29T15:37:34;13.80;99.90
52125;DHT22;38119;52.710;6.398;2024-03-29T15:40:03;13.80;99.90